Time;durP1;ratioP1;P1;durP2;ratioP2;P2;SDS_P1;SDS_P2;PMS_P1;PMS_P2;Temp;Humidity;BMP_temperature;BMP_pressure;BME280_temperature;BME280_humidity;BME280_pressure;Samples;Min_cycle;Max_cycle;Signal;HPM_P1;HPM_P2
2021/03/09 00:00:20;;;;;;;5.97;2.95;;;2.90;53.50;;;;;;5044146;28;20416;-69
2021/03/09 00:02:46;;;;;;;5.65;2.78;;;2.90;53.60;;;;;;5050303;28;20115;-69
2021/03/09 00:05:12;;;;;;;6.80;3.55;;;2.90;53.70;;;;;;5057234;28;20036;-69
2021/03/09 00:07:39;;;;;;;6.15;3.53;;;2.90;53.70;;;;;;5050736;28;20039;-69
2021/03/09 00:10:05;;;;;;;9.35;3.38;;;2.90;53.80;;;;;;5050367;28;20033;-69
2021/03/09 00:12:30;;;;;;;6.07;3.30;;;2.90;53.90;;;;;;5051518;28;20432;-69
2021/03/09 00:14:56;;;;;;;8.77;3.67;;;2.90;54.00;;;;;;5041896;28;20033;-69
2021/03/09 00:17:22;;;;;;;7.18;3.60;;;2.90;54.10;;;;;;5049992;28;20029;-69
2021/03/09 00:19:47;;;;;;;7.45;3.72;;;2.90;54.20;;;;;;5037253;28;20079;-69
2021/03/09 00:22:13;;;;;;;8.45;3.35;;;2.80;54.10;;;;;;5031720;28;20117;-68
2021/03/09 00:24:38;;;;;;;7.22;3.60;;;2.80;54.20;;;;;;5046223;28;20108;-68
2021/03/09 00:27:04;;;;;;;8.73;3.78;;;2.80;54.30;;;;;;5051399;28;20025;-68
2021/03/09 00:29:30;;;;;;;7.82;3.53;;;2.80;54.20;;;;;;5049543;28;20024;-68
2021/03/09 00:31:55;;;;;;;7.93;4.40;;;2.80;54.30;;;;;;5051283;28;20037;-67
2021/03/09 00:34:21;;;;;;;6.45;3.60;;;2.70;54.30;;;;;;5048191;28;20040;-68
2021/03/09 00:36:46;;;;;;;6.15;3.15;;;2.70;54.50;;;;;;5035864;28;20037;-67
2021/03/09 00:39:12;;;;;;;7.45;3.60;;;2.70;54.50;;;;;;5054481;28;20417;-67
2021/03/09 00:41:38;;;;;;;10.68;4.13;;;2.70;54.70;;;;;;5071114;28;20025;-67
2021/03/09 00:44:04;;;;;;;8.18;4.18;;;2.70;54.60;;;;;;5065500;28;20020;-67
2021/03/09 00:46:29;;;;;;;8.30;3.78;;;2.70;54.60;;;;;;5056650;28;20035;-68
2021/03/09 00:48:55;;;;;;;9.00;3.80;;;2.70;54.70;;;;;;5041270;28;20067;-67
2021/03/09 00:51:20;;;;;;;7.55;3.83;;;2.60;54.80;;;;;;5050184;28;20146;-67
2021/03/09 00:53:46;;;;;;;9.13;3.80;;;2.70;54.90;;;;;;5056770;28;20461;-67
2021/03/09 00:56:11;;;;;;;8.60;4.25;;;2.70;54.90;;;;;;5067478;28;20032;-67
2021/03/09 00:58:37;;;;;;;7.32;3.75;;;2.70;55.00;;;;;;5049244;28;20593;-67
2021/03/09 01:01:03;;;;;;;11.05;4.22;;;2.70;55.00;;;;;;5050454;28;20029;-67
2021/03/09 01:03:28;;;;;;;8.60;3.70;;;2.70;55.60;;;;;;5044015;28;20523;-67
2021/03/09 01:05:54;;;;;;;6.45;3.53;;;2.70;55.20;;;;;;5075133;28;20028;-67
2021/03/09 01:08:19;;;;;;;5.63;2.92;;;2.70;55.10;;;;;;5054926;28;20461;-67
2021/03/09 01:10:45;;;;;;;9.98;3.25;;;2.70;55.10;;;;;;5054059;28;20102;-67
2021/03/09 01:13:11;;;;;;;9.38;3.75;;;2.70;55.20;;;;;;5040001;28;20029;-68
2021/03/09 01:15:37;;;;;;;8.63;3.38;;;2.60;55.10;;;;;;5054461;28;20039;-67
2021/03/09 01:18:02;;;;;;;6.45;3.28;;;2.60;55.10;;;;;;5054353;28;20033;-68
2021/03/09 01:20:28;;;;;;;7.32;3.28;;;2.60;55.70;;;;;;5054392;28;20116;-68
2021/03/09 01:22:54;;;;;;;13.13;4.32;;;2.60;55.20;;;;;;5051831;28;20522;-68
2021/03/09 01:25:19;;;;;;;8.07;4.20;;;2.60;55.20;;;;;;5062246;28;20028;-68
2021/03/09 01:27:45;;;;;;;8.82;3.70;;;2.70;55.30;;;;;;5052815;28;20052;-68
2021/03/09 01:30:11;;;;;;;9.50;3.90;;;2.60;55.20;;;;;;5063464;28;20075;-68
2021/03/09 01:32:38;;;;;;;7.32;3.58;;;2.60;55.20;;;;;;5053655;28;20025;-68
2021/03/09 01:35:05;;;;;;;8.27;4.18;;;2.60;55.30;;;;;;5053061;28;20024;-67
2021/03/09 01:37:31;;;;;;;8.10;3.20;;;2.60;55.30;;;;;;5054203;28;20497;-67
2021/03/09 01:39:56;;;;;;;7.50;3.70;;;2.70;55.40;;;;;;5057332;28;20024;-67
2021/03/09 01:42:22;;;;;;;9.25;3.92;;;2.60;55.40;;;;;;5046218;28;20032;-67
2021/03/09 01:44:47;;;;;;;11.52;4.43;;;2.60;55.90;;;;;;5065999;28;20067;-67
2021/03/09 01:47:13;;;;;;;7.15;3.60;;;2.60;55.50;;;;;;5070748;28;20029;-67
2021/03/09 01:49:40;;;;;;;6.90;4.05;;;2.60;55.50;;;;;;5051946;28;20043;-68
2021/03/09 01:52:08;;;;;;;6.35;3.63;;;2.60;55.50;;;;;;5052251;28;20033;-67
2021/03/09 01:54:34;;;;;;;8.27;3.58;;;2.50;55.60;;;;;;5058188;28;20052;-67
2021/03/09 01:57:00;;;;;;;8.65;4.18;;;2.50;55.70;;;;;;5051750;28;20149;-67
2021/03/09 01:59:26;;;;;;;8.70;4.28;;;2.40;55.70;;;;;;5060991;28;20480;-67
2021/03/09 02:01:52;;;;;;;9.48;4.63;;;2.40;55.80;;;;;;5056054;28;20074;-67
2021/03/09 02:04:18;;;;;;;6.45;3.47;;;2.40;55.80;;;;;;5052401;28;20053;-67
2021/03/09 02:06:43;;;;;;;8.07;4.00;;;2.30;55.80;;;;;;5053807;28;20029;-67
2021/03/09 02:09:10;;;;;;;6.93;3.97;;;2.40;55.90;;;;;;5060144;28;20029;-67
2021/03/09 02:12:00;;;;;;;7.65;3.47;;;2.40;56.00;;;;;;5054895;28;20397;-67
2021/03/09 02:14:47;;;;;;;9.90;4.18;;;2.40;56.00;;;;;;5051830;28;20021;-67
2021/03/09 02:17:28;;;;;;;7.32;3.80;;;2.40;56.00;;;;;;5053537;28;20037;-67
2021/03/09 02:20:31;;;;;;;8.05;4.40;;;2.30;56.10;;;;;;5067175;28;20036;-67
2021/03/09 02:23:24;;;;;;;9.57;4.03;;;2.40;56.20;;;;;;5062785;28;20037;-67
2021/03/09 02:26:27;;;;;;;8.32;4.50;;;2.30;56.00;;;;;;5052655;28;20021;-66
2021/03/09 02:29:18;;;;;;;7.43;3.83;;;2.30;56.20;;;;;;5059838;28;20021;-66
2021/03/09 02:31:47;;;;;;;11.05;3.67;;;2.20;56.30;;;;;;5054548;28;20044;-66
2021/03/09 02:34:25;;;;;;;10.63;3.95;;;2.20;56.50;;;;;;5052032;28;20029;-66
2021/03/09 02:36:52;;;;;;;9.10;4.38;;;2.20;56.50;;;;;;5050512;28;20037;-65
2021/03/09 02:39:18;;;;;;;9.57;3.83;;;2.10;56.60;;;;;;5055030;28;20480;-66
2021/03/09 02:41:46;;;;;;;8.30;3.83;;;2.10;56.70;;;;;;5052675;28;20060;-66
2021/03/09 02:44:18;;;;;;;7.93;4.28;;;2.10;56.60;;;;;;5051945;28;20033;-66
2021/03/09 02:46:46;;;;;;;9.02;4.30;;;2.10;56.70;;;;;;5051797;28;20028;-66
2021/03/09 02:49:13;;;;;;;8.00;3.80;;;2.10;56.80;;;;;;5051897;28;20057;-66
2021/03/09 02:51:42;;;;;;;9.88;3.63;;;2.10;56.80;;;;;;5051180;28;20129;-66
2021/03/09 02:54:09;;;;;;;6.82;3.47;;;2.10;56.90;;;;;;5062181;28;20028;-66
2021/03/09 02:56:38;;;;;;;9.02;4.30;;;2.00;56.90;;;;;;5056897;28;20370;-66
2021/03/09 02:59:08;;;;;;;7.88;4.30;;;2.00;56.90;;;;;;5057089;28;20032;-67
2021/03/09 03:01:35;;;;;;;7.22;3.70;;;2.00;57.10;;;;;;5059989;28;20033;-66
2021/03/09 03:04:01;;;;;;;9.30;3.95;;;2.10;57.20;;;;;;5062501;28;20041;-67
2021/03/09 03:06:31;;;;;;;8.48;4.25;;;2.00;57.10;;;;;;5058442;28;20028;-67
2021/03/09 03:08:57;;;;;;;10.35;4.38;;;2.00;57.30;;;;;;5072410;28;20024;-68
2021/03/09 03:11:23;;;;;;;9.10;3.40;;;2.10;57.30;;;;;;5060323;28;20429;-66
2021/03/09 03:13:52;;;;;;;6.65;3.83;;;2.00;57.40;;;;;;5052449;28;20512;-67
2021/03/09 03:16:19;;;;;;;9.70;3.72;;;1.90;57.30;;;;;;5052167;28;20044;-67
2021/03/09 03:18:46;;;;;;;9.10;3.80;;;2.00;57.50;;;;;;5069251;28;20024;-67
2021/03/09 03:21:14;;;;;;;8.70;3.92;;;2.00;57.50;;;;;;5062672;28;20489;-68
2021/03/09 03:23:41;;;;;;;9.68;3.90;;;2.00;57.60;;;;;;5072062;28;20028;-68
2021/03/09 03:26:09;;;;;;;9.55;4.30;;;2.00;57.50;;;;;;5062641;28;20501;-68
2021/03/09 03:28:38;;;;;;;7.40;3.90;;;1.90;57.50;;;;;;5050082;28;20406;-68
2021/03/09 03:31:04;;;;;;;7.65;4.03;;;1.90;57.60;;;;;;5051327;28;20049;-68
2021/03/09 03:33:31;;;;;;;8.20;4.32;;;1.90;57.60;;;;;;5070307;28;20381;-68
2021/03/09 03:36:03;;;;;;;8.80;4.22;;;1.90;57.90;;;;;;5050819;28;20423;-68
2021/03/09 03:38:31;;;;;;;8.63;3.83;;;1.90;57.80;;;;;;5032312;28;20037;-68
2021/03/09 03:40:59;;;;;;;8.15;4.10;;;1.80;57.80;;;;;;5050335;28;20037;-68
2021/03/09 03:43:24;;;;;;;11.20;4.35;;;1.80;57.90;;;;;;5071245;28;20032;-68
2021/03/09 03:45:49;;;;;;;9.63;4.40;;;1.80;58.00;;;;;;5034778;28;20033;-68
2021/03/09 03:48:15;;;;;;;11.52;4.35;;;1.80;58.00;;;;;;5052762;28;20033;-68
2021/03/09 03:50:40;;;;;;;9.20;4.10;;;1.80;58.00;;;;;;5051034;28;20045;-68
2021/03/09 03:53:29;;;;;;;7.97;3.78;;;1.90;58.10;;;;;;5067224;28;20027;-68
2021/03/09 03:56:01;;;;;;;9.43;4.28;;;1.80;58.20;;;;;;5030407;28;20086;-68
2021/03/09 03:58:50;;;;;;;11.10;4.95;;;1.80;58.30;;;;;;5052790;28;20056;-67
2021/03/09 04:01:19;;;;;;;9.38;4.10;;;1.80;58.30;;;;;;5051639;28;20025;-67
2021/03/09 04:03:47;;;;;;;9.68;4.45;;;1.80;58.40;;;;;;5065553;28;20516;-67
2021/03/09 04:06:14;;;;;;;8.60;4.15;;;1.80;58.40;;;;;;5050401;28;20477;-67
2021/03/09 04:08:39;;;;;;;7.32;3.78;;;1.80;58.60;;;;;;5046157;28;20036;-68
2021/03/09 04:11:07;;;;;;;11.27;4.50;;;1.70;58.70;;;;;;5041203;28;20037;-68
2021/03/09 04:13:36;;;;;;;11.75;4.50;;;1.80;58.70;;;;;;5050802;28;20021;-67
2021/03/09 04:16:02;;;;;;;9.55;3.88;;;1.80;58.60;;;;;;5054890;28;20033;-67
2021/03/09 04:18:29;;;;;;;10.43;3.88;;;1.80;58.70;;;;;;5031079;28;20028;-68
2021/03/09 04:20:55;;;;;;;8.45;4.20;;;1.80;58.70;;;;;;5038858;28;20041;-67
2021/03/09 04:23:21;;;;;;;8.57;4.47;;;1.80;58.70;;;;;;5050551;28;20048;-67
2021/03/09 04:25:48;;;;;;;8.13;3.78;;;1.70;58.70;;;;;;5041792;28;20448;-67
2021/03/09 04:28:14;;;;;;;9.68;3.95;;;1.80;58.70;;;;;;5068378;28;20036;-67
2021/03/09 04:30:41;;;;;;;8.65;4.20;;;1.70;58.60;;;;;;5059504;28;20387;-67
2021/03/09 04:33:07;;;;;;;10.13;4.45;;;1.70;58.70;;;;;;5066016;28;20527;-68
2021/03/09 04:35:33;;;;;;;10.63;3.83;;;1.70;58.80;;;;;;5068194;28;20116;-68
2021/03/09 04:37:59;;;;;;;11.48;4.45;;;1.70;58.80;;;;;;5046665;28;20029;-66
2021/03/09 04:40:25;;;;;;;8.25;4.10;;;1.70;58.90;;;;;;5045689;28;20033;-66
2021/03/09 04:42:50;;;;;;;8.40;3.72;;;1.70;59.00;;;;;;5047391;28;20041;-67
2021/03/09 04:45:17;;;;;;;9.40;4.68;;;1.70;59.00;;;;;;5078145;28;20029;-68
2021/03/09 04:47:43;;;;;;;11.95;4.07;;;1.70;59.20;;;;;;5062916;28;20128;-67
2021/03/09 04:50:11;;;;;;;9.50;4.13;;;1.70;59.30;;;;;;5064489;28;20040;-67
2021/03/09 04:52:37;;;;;;;10.95;3.90;;;1.70;59.20;;;;;;5052737;28;20466;-68
2021/03/09 04:55:04;;;;;;;8.60;3.92;;;1.60;59.20;;;;;;5033673;28;20048;-67
2021/03/09 04:57:36;;;;;;;6.78;4.03;;;1.60;59.20;;;;;;5060583;28;20102;-68
2021/03/09 05:00:23;;;;;;;9.90;4.80;;;1.70;59.30;;;;;;5068325;28;20120;-67
2021/03/09 05:02:50;;;;;;;11.30;4.25;;;1.60;59.10;;;;;;5049673;28;20496;-67
2021/03/09 05:05:17;;;;;;;8.73;4.28;;;1.60;59.10;;;;;;5046632;28;20029;-68
2021/03/09 05:07:43;;;;;;;7.10;3.80;;;1.60;59.20;;;;;;5058165;28;20037;-67
2021/03/09 05:10:09;;;;;;;8.27;4.40;;;1.60;59.30;;;;;;5064281;28;20415;-67
2021/03/09 05:12:38;;;;;;;8.02;3.58;;;1.60;59.20;;;;;;5062605;28;20041;-67
2021/03/09 05:15:04;;;;;;;8.43;4.13;;;1.60;59.30;;;;;;5054832;28;20024;-67
2021/03/09 05:17:29;;;;;;;7.70;4.22;;;1.60;59.40;;;;;;5042557;28;20033;-67
2021/03/09 05:19:55;;;;;;;7.95;3.97;;;1.60;59.40;;;;;;5042783;28;20040;-67
2021/03/09 05:22:20;;;;;;;8.93;3.92;;;1.60;59.40;;;;;;5059391;28;20031;-67
2021/03/09 05:24:46;;;;;;;11.90;4.35;;;1.60;59.40;;;;;;5050676;28;20029;-67
2021/03/09 05:27:11;;;;;;;9.25;5.03;;;1.60;59.40;;;;;;5063836;28;20488;-67
2021/03/09 05:29:37;;;;;;;9.98;4.40;;;1.60;59.50;;;;;;5065946;28;20033;-67
2021/03/09 05:32:02;;;;;;;10.48;3.85;;;1.60;59.60;;;;;;5057809;28;20365;-67
2021/03/09 05:34:28;;;;;;;7.63;3.90;;;1.60;59.70;;;;;;5068685;28;20025;-68
2021/03/09 05:36:53;;;;;;;10.73;4.45;;;1.60;59.70;;;;;;5058367;28;20107;-68
2021/03/09 05:39:19;;;;;;;9.80;4.80;;;1.60;59.80;;;;;;5063738;28;20036;-67
2021/03/09 05:41:45;;;;;;;7.40;4.10;;;1.50;59.80;;;;;;5048562;28;20029;-68
2021/03/09 05:44:10;;;;;;;7.53;3.85;;;1.60;60.00;;;;;;5058624;28;20033;-67
2021/03/09 05:46:36;;;;;;;8.93;4.40;;;1.60;60.00;;;;;;5063135;28;20068;-67
2021/03/09 05:49:02;;;;;;;8.48;3.80;;;1.60;60.00;;;;;;5052002;28;20108;-67
2021/03/09 05:51:30;;;;;;;10.63;4.18;;;1.60;60.00;;;;;;5055776;28;20059;-68
2021/03/09 05:53:56;;;;;;;9.10;4.38;;;1.50;60.00;;;;;;5069067;28;20086;-68
2021/03/09 05:56:22;;;;;;;9.43;4.40;;;1.50;60.20;;;;;;5055480;28;20481;-68
2021/03/09 05:58:48;;;;;;;6.60;3.95;;;1.50;60.20;;;;;;5065311;28;20045;-67
2021/03/09 06:01:13;;;;;;;11.38;4.43;;;1.50;60.30;;;;;;5051178;28;20167;-67
2021/03/09 06:03:39;;;;;;;10.48;4.20;;;1.50;60.30;;;;;;5053149;28;20115;-67
2021/03/09 06:06:05;;;;;;;11.15;4.40;;;1.50;60.30;;;;;;5053090;28;20374;-70
2021/03/09 06:08:30;;;;;;;10.60;4.20;;;1.50;60.40;;;;;;5051581;28;20029;-68
2021/03/09 06:11:31;;;;;;;8.23;4.03;;;1.50;60.60;;;;;;5053581;28;20040;-68
2021/03/09 06:13:57;;;;;;;7.95;4.10;;;1.50;60.60;;;;;;4999711;28;20398;-68
2021/03/09 06:16:23;;;;;;;9.68;4.40;;;1.50;60.60;;;;;;5048716;28;20032;-68
2021/03/09 06:18:56;;;;;;;9.05;4.63;;;1.50;60.60;;;;;;5059865;28;20029;-68
2021/03/09 06:21:24;;;;;;;10.05;4.55;;;1.60;60.80;;;;;;5039239;28;20036;-68
2021/03/09 06:23:49;;;;;;;10.80;4.63;;;1.60;60.90;;;;;;5063746;28;20378;-67
2021/03/09 06:26:33;;;;;;;7.95;4.18;;;1.60;60.90;;;;;;5053354;28;20754;-68
2021/03/09 06:29:15;;;;;;;9.95;4.85;;;1.60;61.00;;;;;;5073718;28;20489;-68
2021/03/09 06:32:00;;;;;;;10.45;4.90;;;1.60;60.90;;;;;;5056905;28;20116;-68
2021/03/09 06:34:31;;;;;;;10.18;4.63;;;1.60;60.90;;;;;;5050107;28;20466;-67
2021/03/09 06:37:05;;;;;;;8.65;4.82;;;1.70;61.00;;;;;;5054117;28;20037;-68
2021/03/09 06:39:54;;;;;;;8.20;4.27;;;1.70;61.20;;;;;;5051736;28;20469;-68
2021/03/09 06:42:26;;;;;;;10.25;4.55;;;1.80;61.00;;;;;;5051761;28;20039;-68
2021/03/09 06:44:55;;;;;;;12.77;4.50;;;1.80;61.00;;;;;;5053243;28;20465;-68
2021/03/09 06:47:38;;;;;;;10.60;4.82;;;1.80;61.30;;;;;;5053786;28;20040;-68
2021/03/09 06:50:10;;;;;;;8.95;4.65;;;1.80;61.00;;;;;;5053455;28;20468;-68
2021/03/09 06:52:36;;;;;;;11.27;4.97;;;1.90;60.90;;;;;;5050851;28;20115;-71
2021/03/09 06:55:03;;;;;;;11.90;4.78;;;1.90;61.30;;;;;;5052841;28;20419;-67
2021/03/09 06:57:29;;;;;;;15.43;5.65;;;1.90;60.90;;;;;;5059525;28;20128;-67
2021/03/09 06:59:55;;;;;;;10.95;4.18;;;1.90;60.90;;;;;;5072148;28;20136;-68
2021/03/09 07:02:28;;;;;;;10.48;4.70;;;2.00;60.90;;;;;;5064663;28;20040;-67
2021/03/09 07:05:07;;;;;;;11.60;4.28;;;2.00;60.90;;;;;;5046956;28;20033;-69
2021/03/09 07:07:37;;;;;;;9.18;4.57;;;2.10;61.00;;;;;;5047720;28;20025;-70
2021/03/09 07:10:13;;;;;;;10.18;5.13;;;2.20;60.90;;;;;;5051053;28;20024;-71
2021/03/09 07:12:41;;;;;;;11.10;5.35;;;2.30;60.70;;;;;;5059281;28;20531;-70
2021/03/09 07:15:09;;;;;;;11.70;4.95;;;2.30;60.50;;;;;;5051867;28;20024;-70
2021/03/09 07:17:36;;;;;;;13.85;5.55;;;2.30;60.40;;;;;;5051698;28;20029;-69
2021/03/09 07:20:04;;;;;;;8.32;4.55;;;2.40;60.30;;;;;;5051414;28;20539;-70
2021/03/09 07:22:31;;;;;;;9.52;5.13;;;2.40;60.30;;;;;;5062537;28;20362;-69
2021/03/09 07:25:15;;;;;;;12.27;5.35;;;2.40;60.20;;;;;;5065080;28;20025;-68
2021/03/09 07:27:51;;;;;;;12.70;4.97;;;2.50;60.40;;;;;;5057379;28;20034;-68
2021/03/09 07:30:19;;;;;;;8.80;4.57;;;2.50;60.30;;;;;;5041349;28;20029;-69
2021/03/09 07:32:49;;;;;;;12.90;5.80;;;2.60;60.40;;;;;;5064133;28;20518;-68
2021/03/09 07:35:16;;;;;;;8.98;4.97;;;2.70;60.30;;;;;;5051880;28;20028;-68
2021/03/09 07:37:43;;;;;;;13.38;5.47;;;2.80;60.20;;;;;;5053928;28;20036;-69
2021/03/09 07:40:17;;;;;;;10.55;4.93;;;2.80;60.00;;;;;;5045670;28;20473;-71
2021/03/09 07:42:43;;;;;;;11.38;5.80;;;2.90;60.00;;;;;;5044383;28;20504;-70
2021/03/09 07:45:11;;;;;;;13.15;5.68;;;3.00;59.90;;;;;;5045641;28;20033;-71
2021/03/09 07:47:49;;;;;;;11.07;5.93;;;3.00;60.20;;;;;;5049968;28;20060;-70
2021/03/09 07:50:16;;;;;;;13.70;5.78;;;3.00;59.50;;;;;;5051852;28;20048;-71
2021/03/09 07:53:05;;;;;;;9.27;5.18;;;3.00;59.30;;;;;;5048150;28;20086;-71
2021/03/09 07:55:31;;;;;;;11.80;5.90;;;3.10;59.30;;;;;;5051769;28;20060;-71
2021/03/09 07:58:22;;;;;;;12.25;5.97;;;3.20;59.00;;;;;;5050008;28;20041;-71
2021/03/09 08:00:56;;;;;;;15.38;5.85;;;3.20;59.20;;;;;;5051524;28;20091;-71
2021/03/09 08:03:36;;;;;;;10.70;5.65;;;3.20;59.20;;;;;;5050697;28;20025;-71
2021/03/09 08:06:04;;;;;;;12.57;4.97;;;3.30;59.20;;;;;;5035279;28;20037;-70
2021/03/09 08:08:41;;;;;;;10.95;5.55;;;3.30;59.10;;;;;;5051439;28;20066;-71
2021/03/09 08:11:13;;;;;;;12.60;6.20;;;3.40;58.80;;;;;;5056764;28;20032;-71
2021/03/09 08:13:40;;;;;;;12.77;6.13;;;3.40;58.80;;;;;;5060462;28;20025;-71
2021/03/09 08:16:20;;;;;;;10.82;5.60;;;3.40;58.70;;;;;;5049904;28;20025;-71
2021/03/09 08:18:48;;;;;;;29.70;6.97;;;3.50;58.70;;;;;;5062966;28;20465;-70
2021/03/09 08:21:15;;;;;;;12.77;5.47;;;3.50;58.80;;;;;;5045999;28;20033;-71
2021/03/09 08:23:40;;;;;;;13.57;6.22;;;3.60;58.80;;;;;;5036388;28;20512;-71
2021/03/09 08:26:13;;;;;;;12.20;5.78;;;3.60;58.80;;;;;;5050078;28;20020;-70
2021/03/09 08:28:41;;;;;;;12.70;6.00;;;3.70;58.70;;;;;;5048262;28;20039;-72
2021/03/09 08:31:12;;;;;;;13.32;6.13;;;3.80;58.60;;;;;;5049197;28;20044;-72
2021/03/09 08:33:54;;;;;;;10.82;5.22;;;3.90;58.30;;;;;;5045739;28;20036;-71
2021/03/09 08:36:19;;;;;;;10.45;5.75;;;4.00;58.10;;;;;;5045314;28;20114;-70
2021/03/09 08:39:04;;;;;;;11.25;5.60;;;4.10;58.00;;;;;;5062517;28;20055;-70
2021/03/09 08:41:42;;;;;;;11.18;5.75;;;4.10;57.90;;;;;;5065245;28;20044;-70
2021/03/09 08:44:17;;;;;;;10.45;5.57;;;4.20;58.00;;;;;;5051175;28;20037;-70
2021/03/09 08:47:07;;;;;;;9.05;5.40;;;4.30;57.80;;;;;;5050751;28;20032;-71
2021/03/09 08:49:40;;;;;;;12.52;5.63;;;4.40;57.50;;;;;;5056841;28;20068;-70
2021/03/09 08:52:06;;;;;;;12.68;6.60;;;4.40;57.30;;;;;;5053582;28;20052;-70
2021/03/09 08:54:42;;;;;;;9.88;6.03;;;4.40;57.00;;;;;;5051821;28;20450;-70
2021/03/09 08:57:22;;;;;;;11.13;5.50;;;4.50;57.10;;;;;;5058757;28;20088;-70
2021/03/09 08:59:52;;;;;;;11.50;6.00;;;4.60;57.20;;;;;;5054403;28;20026;-70
2021/03/09 09:02:23;;;;;;;11.55;5.90;;;4.60;56.90;;;;;;5042255;28;20041;-70
2021/03/09 09:05:01;;;;;;;11.32;5.80;;;4.70;56.00;;;;;;5049560;28;20594;-70
2021/03/09 09:07:34;;;;;;;8.70;5.47;;;4.70;56.30;;;;;;5050321;28;20056;-69
2021/03/09 09:10:24;;;;;;;11.93;5.32;;;4.80;56.10;;;;;;5049012;28;20057;-69
2021/03/09 09:12:54;;;;;;;12.95;5.78;;;4.90;55.80;;;;;;5052369;28;20036;-68
2021/03/09 09:15:21;;;;;;;10.77;5.32;;;5.00;55.70;;;;;;5056927;28;20033;-70
2021/03/09 09:17:57;;;;;;;12.32;5.90;;;5.10;55.50;;;;;;5053973;28;20505;-70
2021/03/09 09:20:34;;;;;;;10.93;5.30;;;5.10;54.70;;;;;;5039953;28;20040;-70
2021/03/09 09:23:11;;;;;;;9.60;5.38;;;5.10;54.50;;;;;;5042025;28;20024;-71
2021/03/09 09:25:39;;;;;;;13.77;5.60;;;5.20;54.50;;;;;;5064809;28;20025;-70
2021/03/09 09:28:06;;;;;;;10.63;5.25;;;5.30;54.50;;;;;;5059541;28;20021;-70
2021/03/09 09:30:40;;;;;;;12.52;6.10;;;5.30;54.10;;;;;;5072902;28;20069;-72
2021/03/09 09:33:07;;;;;;;10.68;5.35;;;5.40;54.10;;;;;;5074528;28;20040;-70
2021/03/09 09:35:33;;;;;;;11.10;5.20;;;5.50;54.10;;;;;;5049584;28;20024;-70
2021/03/09 09:38:00;;;;;;;9.00;4.65;;;5.60;53.70;;;;;;5051445;28;20036;-70
2021/03/09 09:40:30;;;;;;;9.70;4.97;;;5.70;53.30;;;;;;5058114;28;20033;-72
2021/03/09 09:43:13;;;;;;;10.00;5.15;;;5.80;53.70;;;;;;5056110;28;20370;-69
2021/03/09 09:45:45;;;;;;;13.98;4.95;;;5.80;52.90;;;;;;5053532;28;20021;-69
2021/03/09 09:48:14;;;;;;;9.65;5.10;;;5.90;53.00;;;;;;5051622;28;20039;-69
2021/03/09 09:50:51;;;;;;;10.27;5.22;;;6.00;52.60;;;;;;5053503;28;20033;-70
2021/03/09 09:53:40;;;;;;;9.98;5.18;;;6.00;51.60;;;;;;5061472;28;20028;-69
2021/03/09 09:56:08;;;;;;;11.32;5.75;;;6.10;51.70;;;;;;5040644;28;20026;-70
2021/03/09 09:58:46;;;;;;;12.07;5.30;;;6.10;51.60;;;;;;5047937;28;20049;-69
2021/03/09 10:01:17;;;;;;;11.25;4.53;;;6.10;50.90;;;;;;5036375;28;20032;-69
2021/03/09 10:03:56;;;;;;;7.50;4.20;;;6.20;51.10;;;;;;5053708;28;20025;-70
2021/03/09 10:06:25;;;;;;;7.20;3.35;;;6.30;51.00;;;;;;5055077;28;20043;-70
2021/03/09 10:08:51;;;;;;;9.60;4.95;;;6.40;51.00;;;;;;5074056;28;20059;-70
2021/03/09 10:11:16;;;;;;;10.13;4.22;;;6.40;50.70;;;;;;5062417;28;20041;-70
2021/03/09 10:13:42;;;;;;;11.75;4.30;;;6.50;50.50;;;;;;5073819;28;20013;-70
2021/03/09 10:16:08;;;;;;;6.93;3.75;;;6.50;50.10;;;;;;5051896;28;20474;-70
2021/03/09 10:18:36;;;;;;;8.07;4.38;;;6.60;49.70;;;;;;5052690;28;20051;-69
2021/03/09 10:21:04;;;;;;;6.07;3.45;;;6.60;49.70;;;;;;5054172;28;21859;-69
2021/03/09 10:23:31;;;;;;;9.30;4.13;;;6.70;49.60;;;;;;5053688;28;20029;-70
2021/03/09 10:26:03;;;;;;;8.65;3.83;;;6.80;49.40;;;;;;5052678;28;20025;-71
2021/03/09 10:28:31;;;;;;;11.63;3.95;;;6.90;48.70;;;;;;5042173;28;20027;-70
2021/03/09 10:30:57;;;;;;;8.00;4.20;;;6.90;48.60;;;;;;5052250;28;20115;-70
2021/03/09 10:33:22;;;;;;;7.70;3.95;;;6.90;47.90;;;;;;5053494;28;20524;-69
2021/03/09 10:36:10;;;;;;;6.80;3.85;;;6.90;46.40;;;;;;5051575;28;20033;-70
2021/03/09 10:38:36;;;;;;;6.22;3.58;;;7.00;46.80;;;;;;5051605;28;20040;-70
2021/03/09 10:41:03;;;;;;;6.30;2.60;;;6.90;47.40;;;;;;5052359;28;20381;-70
2021/03/09 10:43:38;;;;;;;5.93;2.75;;;7.00;46.50;;;;;;5053166;28;20137;-71
2021/03/09 10:46:04;;;;;;;5.60;2.47;;;7.10;46.50;;;;;;5052488;28;20025;-70
2021/03/09 10:48:29;;;;;;;7.72;2.97;;;7.20;46.60;;;;;;5053488;28;20108;-70
2021/03/09 10:50:55;;;;;;;6.43;2.90;;;7.30;46.30;;;;;;5052629;28;20684;-70
2021/03/09 10:53:20;;;;;;;6.63;2.53;;;7.40;46.10;;;;;;5052974;28;20039;-70
2021/03/09 10:55:46;;;;;;;5.72;2.88;;;7.50;46.10;;;;;;5051240;28;20527;-70
2021/03/09 10:58:11;;;;;;;5.25;3.00;;;7.60;46.20;;;;;;5051367;28;20053;-70
2021/03/09 11:00:37;;;;;;;6.93;2.80;;;7.80;46.00;;;;;;5049080;28;20109;-69
2021/03/09 11:03:02;;;;;;;9.63;2.92;;;7.80;45.80;;;;;;5064099;28;20032;-69
2021/03/09 11:05:28;;;;;;;4.57;3.10;;;7.90;45.20;;;;;;5054347;28;20021;-69
2021/03/09 11:07:53;;;;;;;6.78;3.45;;;7.90;45.40;;;;;;5066720;28;20033;-71
2021/03/09 11:10:19;;;;;;;5.53;2.85;;;8.00;45.30;;;;;;5056000;28;20048;-70
2021/03/09 11:12:45;;;;;;;5.00;2.65;;;8.00;45.20;;;;;;5051618;28;20032;-69
2021/03/09 11:15:11;;;;;;;6.03;2.58;;;8.10;45.10;;;;;;5045656;28;20128;-70
2021/03/09 11:17:37;;;;;;;7.25;2.35;;;8.20;44.90;;;;;;5046434;28;20032;-70
2021/03/09 11:20:06;;;;;;;3.17;2.05;;;8.30;44.20;;;;;;5060540;28;20131;-70
2021/03/09 11:22:32;;;;;;;4.53;2.10;;;8.30;44.00;;;;;;5062992;28;20033;-70
2021/03/09 11:24:57;;;;;;;5.00;1.70;;;8.40;43.80;;;;;;5054703;28;20029;-70
2021/03/09 11:27:23;;;;;;;3.35;1.60;;;8.50;43.70;;;;;;5063211;28;20031;-69
2021/03/09 11:29:48;;;;;;;6.20;1.80;;;8.50;43.40;;;;;;5066378;28;20024;-70
2021/03/09 11:32:14;;;;;;;3.25;1.80;;;8.50;42.90;;;;;;5061719;28;20039;-70
2021/03/09 11:34:40;;;;;;;4.18;1.85;;;8.60;41.90;;;;;;5037072;28;20018;-70
2021/03/09 11:37:05;;;;;;;3.17;1.70;;;8.60;42.00;;;;;;5049975;28;20067;-69
2021/03/09 11:39:31;;;;;;;4.78;1.95;;;8.60;41.90;;;;;;5056008;28;20025;-68
2021/03/09 11:41:56;;;;;;;5.93;2.30;;;8.70;42.10;;;;;;5051372;28;20029;-69
2021/03/09 11:44:22;;;;;;;3.92;2.08;;;8.80;41.80;;;;;;5037271;28;20025;-69
2021/03/09 11:46:49;;;;;;;4.15;2.30;;;8.80;41.00;;;;;;5040551;28;20393;-67
2021/03/09 11:49:16;;;;;;;4.85;2.67;;;8.80;41.70;;;;;;5063447;28;20377;-69
2021/03/09 11:51:41;;;;;;;4.40;2.20;;;8.90;41.80;;;;;;5060515;28;20037;-69
2021/03/09 11:54:07;;;;;;;4.47;2.00;;;9.00;41.90;;;;;;5032012;28;20535;-64
2021/03/09 11:56:32;;;;;;;4.85;2.40;;;9.00;41.60;;;;;;5037852;28;20037;-69
2021/03/09 11:58:58;;;;;;;5.53;2.42;;;9.00;41.50;;;;;;5049920;28;20041;-69
2021/03/09 12:01:24;;;;;;;3.83;2.17;;;9.00;41.40;;;;;;5052779;28;20078;-70
2021/03/09 12:03:49;;;;;;;6.70;2.53;;;9.10;41.40;;;;;;5050046;28;20029;-67
2021/03/09 12:06:15;;;;;;;6.03;2.60;;;9.10;40.80;;;;;;5045432;28;20043;-69
2021/03/09 12:08:40;;;;;;;4.45;2.45;;;9.10;41.10;;;;;;5051593;28;20076;-69
2021/03/09 12:11:06;;;;;;;8.52;2.83;;;9.10;41.10;;;;;;5050548;28;20127;-68
2021/03/09 12:13:31;;;;;;;7.20;2.60;;;9.00;41.80;;;;;;5051427;28;20025;-68
2021/03/09 12:15:57;;;;;;;5.93;3.00;;;9.10;41.30;;;;;;5055625;28;20028;-68
2021/03/09 12:18:23;;;;;;;5.03;2.55;;;9.00;40.90;;;;;;5069725;28;20021;-68
2021/03/09 12:20:48;;;;;;;3.75;2.20;;;9.00;40.80;;;;;;5057893;28;20017;-68
2021/03/09 12:23:14;;;;;;;4.35;2.50;;;9.00;40.40;;;;;;5047508;28;20028;-68
2021/03/09 12:25:40;;;;;;;5.45;2.72;;;9.00;40.50;;;;;;5057394;28;20043;-68
2021/03/09 12:28:06;;;;;;;5.40;2.92;;;9.00;40.50;;;;;;5050270;28;20036;-67
2021/03/09 12:30:32;;;;;;;5.53;2.65;;;9.00;40.50;;;;;;5051541;28;20036;-69
2021/03/09 12:32:57;;;;;;;6.82;3.00;;;9.00;40.20;;;;;;5053258;28;20025;-68
2021/03/09 12:35:23;;;;;;;5.53;2.60;;;9.10;40.40;;;;;;5046406;28;20028;-68
2021/03/09 12:37:49;;;;;;;7.57;2.80;;;9.10;40.30;;;;;;5047777;28;20036;-68
2021/03/09 12:40:14;;;;;;;5.47;2.40;;;9.10;40.00;;;;;;5070985;28;20544;-68
2021/03/09 12:42:40;;;;;;;4.65;2.60;;;9.10;40.30;;;;;;5053425;28;20029;-69
2021/03/09 12:45:06;;;;;;;5.22;2.67;;;9.10;40.20;;;;;;5050471;28;20048;-68
2021/03/09 12:47:32;;;;;;;4.85;2.80;;;9.10;40.30;;;;;;5051507;28;20182;-68
2021/03/09 12:49:58;;;;;;;5.50;2.53;;;9.20;39.50;;;;;;5051138;28;20017;-69
2021/03/09 12:52:24;;;;;;;5.03;2.85;;;9.20;40.00;;;;;;5059850;28;20037;-69
2021/03/09 12:54:49;;;;;;;4.40;2.55;;;9.30;40.10;;;;;;5048718;28;20052;-69
2021/03/09 12:57:15;;;;;;;5.43;2.88;;;9.30;40.00;;;;;;5050210;28;20167;-69
2021/03/09 12:59:41;;;;;;;4.97;2.53;;;9.20;39.40;;;;;;5054309;28;20021;-69
2021/03/09 13:02:07;;;;;;;5.10;2.60;;;9.20;39.50;;;;;;5055061;28;20032;-70